Language selection

Weather shortcuts

Atlantic - Newfoundland: Past 24 Hour Conditions

 

West Chedabucto Bay - 44489

07:00 PM AST 20 February 2024Buoy position: 45.49N 61.14W
Disclaimer

This table is a summary of hourly weather conditions for the past 24 hours.
Please note that these observations might not always be representative of weather conditions over their associated marine area.

Date / Time
(AST)
Wind(knots) Wave height(m) Wave period(s) Pressure(kPa) Air tempC) Water tempC)
20 February 2024
19:00 NNW 16 gusts 20 0.42 2.6 102.8 -7 1
18:00 N 19 gusts 24 0.50 2.8 102.7 -6 1
17:00 NNW 20 gusts 27 0.60 2.9 102.6 -6 1
16:00 NNW 20 gusts 25 0.66 3.0 102.5 -6 1
15:00 NNW 19 gusts 24 0.61 3.1 102.5 -6 1
14:00 NNW 22 gusts 26 0.62 3.0 102.4 -6 1
13:00 NNW 19 gusts 25 0.61 3.0 102.3 -6 1
12:00 NNW 22 gusts 26 0.64 3.0 102.4 -7 1
11:00 NNW 22 gusts 29 0.72 3.1 102.3 -7 1
10:00 NNW 20 gusts 24 0.65 2.9 102.3 -7 1
9:00 NW 18 gusts 23 0.57 3.0 102.3 -8 1
8:00 NW 18 gusts 23 0.57 3.0 102.2 -8 1
7:00 NW 17 gusts 21 0.55 2.9 102.1 -9 1
6:00 WNW 16 gusts 19 0.52 2.9 102.1 -8 1
5:00 NW 17 gusts 22 0.49 2.9 102.0 -7 1
4:00 NW 17 gusts 21 0.49 2.7 101.9 -6 1
3:00 NW 16 gusts 21 0.43 2.7 101.8 -6 1
2:00 NW 16 gusts 19 0.41 2.8 101.8 -6 1
1:00 NW 16 gusts 19 0.39 2.7 101.7 -5 1
0:00 NW 16 gusts 19 0.44 2.8 101.7 -5 1
19 February 2024
23:00 WNW 15 gusts 17 0.38 2.7 101.6 -5 1
22:00 WNW 13 gusts 16 0.37 2.8 101.6 -4 1
21:00 NNW 18 gusts 22 0.55 2.9 101.5 -3 1
20:00 NNW 23 gusts 29 0.53 2.7 101.3 -3 1
19:00 NNW 19 gusts 26 0.61 3.0 101.3 -2 1

Zoom-in to make a selection

Map of Atlantic - Newfoundland marine weather areas Banquereau - 44139 East Chedabucto Bay – 44488 West Chedabucto Bay – 44489 Blanc-Sablon Airport Cap Whittle Chevery Natashquan Airport Heath Point Îles de la Madeleine Airport Miscou Island Eskasoni (First Nations) Grand Étang Ingonish Beach North Mountain St.Paul Island J.A. Douglas McCurdy Sydney Airport Charlottetown Airport East Point North Cape Argentia Berry Hill Bonavista Burgeo Cape Race Corner Brook Daniel's Harbour Englee Ferolle Point La Scie Port aux Basques Sagona Island St. Anthony Airport St. John's Int'l Airport St. Lawrence Stephenville Airport Twillingate Winterland Branch Hill Wreckhouse Grates Cove Pool's Island Marticot Island Long Pond Cartwright Airport Mary's Harbour
Legend:
buoy Buoy
land station Land Station

Atlantic - Newfoundland Area

Another Region

Date modified: